Time;durP1;ratioP1;P1;durP2;ratioP2;P2;SDS_P1;SDS_P2;PMS_P1;PMS_P2;Temp;Humidity;BMP_temperature;BMP_pressure;BME280_temperature;BME280_humidity;BME280_pressure;Samples;Min_cycle;Max_cycle;Signal;HPM_P1;HPM_P2
2023/01/29 00:11:43;;;;;;;21.10;8.87;;;;;;;2.36;100.00;99857.56;31047103;28;20458;-77
2023/01/29 00:26:45;;;;;;;19.87;8.47;;;;;;;2.50;100.00;99861.53;31077965;28;20101;-76
2023/01/29 00:57:07;;;;;;;20.77;9.33;;;;;;;2.65;100.00;99857.81;31036984;28;20053;-81
2023/01/29 01:12:09;;;;;;;21.67;8.70;;;;;;;2.56;100.00;99855.47;31049937;28;20085;-78
2023/01/29 01:27:11;;;;;;;21.77;9.63;;;;;;;2.38;100.00;99833.06;31024391;28;20511;-78
2023/01/29 01:42:14;;;;;;;20.00;8.43;;;;;;;2.40;100.00;99826.22;31040096;28;20054;-79
2023/01/29 01:57:23;;;;;;;45.73;15.73;;;;;;;2.46;100.00;99833.91;31024115;28;20042;-78
2023/01/29 02:12:29;;;;;;;16.40;8.63;;;;;;;2.34;100.00;99825.03;31024968;28;20058;-78
2023/01/29 02:27:50;;;;;;;;;;;;;;;2.22;100.00;99827.97;31036898;28;20080;-77
2023/01/29 02:43:16;;;;;;;14.43;8.03;;;;;;;2.29;100.00;99836.06;31044474;28;19929;-76
2023/01/29 02:58:30;;;;;;;17.23;9.70;;;;;;;2.27;100.00;99816.91;31020237;28;20050;-76
2023/01/29 03:13:50;;;;;;;22.23;8.93;;;;;;;2.00;100.00;99808.25;31058313;28;20636;-77
2023/01/29 03:44:20;;;;;;;17.17;8.77;;;;;;;1.83;100.00;99824.13;31055709;28;20054;-77
2023/01/29 03:59:41;;;;;;;19.03;8.40;;;;;;;1.85;100.00;99829.88;31088165;28;20046;-76
2023/01/29 04:14:45;;;;;;;15.83;8.70;;;;;;;1.74;100.00;99827.06;31047816;28;20058;-75
2023/01/29 04:30:13;;;;;;;23.07;8.10;;;;;;;1.98;100.00;99828.47;31045490;28;20058;-75
2023/01/29 04:45:19;;;;;;;19.00;9.30;;;;;;;2.30;100.00;99837.63;31012268;28;20053;-75
2023/01/29 05:00:34;;;;;;;17.13;7.63;;;;;;;2.39;100.00;99862.19;31043792;28;20140;-76
2023/01/29 05:15:47;;;;;;;18.90;9.13;;;;;;;2.56;100.00;99889.53;31077101;28;20054;-74
2023/01/29 05:30:52;;;;;;;14.67;8.03;;;;;;;2.54;100.00;99903.28;31042205;28;20039;-75
2023/01/29 05:45:56;;;;;;;17.07;7.13;;;;;;;2.22;100.00;99889.56;31038222;28;20049;-75
2023/01/29 06:01:10;;;;;;;20.13;8.80;;;;;;;2.19;100.00;99884.94;31040722;28;20049;-81
2023/01/29 10:31:37;;;;;;;20.53;8.73;;;;;;;2.41;100.00;99821.63;31597217;27;20387;-78
2023/01/29 10:47:09;;;;;;;15.33;7.70;;;;;;;2.39;100.00;99830.03;31514480;28;20083;-79
2023/01/29 11:02:20;;;;;;;18.17;9.00;;;;;;;2.29;100.00;99838.75;31520944;28;20097;-76
2023/01/29 11:17:24;;;;;;;18.27;9.23;;;;;;;2.23;100.00;99842.91;31530587;28;20056;-75
2023/01/29 11:32:32;;;;;;;21.70;9.63;;;;;;;2.42;100.00;99841.91;31465639;28;20494;-84
2023/01/29 11:47:35;;;;;;;19.40;8.87;;;;;;;2.19;100.00;99844.00;31428331;28;20048;-82
2023/01/29 12:02:43;;;;;;;21.80;11.53;;;;;;;2.04;100.00;99851.13;31435507;28;20059;-86
2023/01/29 12:17:57;;;;;;;17.37;9.20;;;;;;;2.07;100.00;99861.09;31530282;28;20516;-85
2023/01/29 12:33:09;;;;;;;20.27;10.90;;;;;;;2.26;100.00;99863.59;31459997;28;20200;-86
2023/01/29 12:48:18;;;;;;;25.83;13.70;;;;;;;2.14;100.00;99882.59;31443125;28;20048;-83
2023/01/29 13:03:22;;;;;;;22.50;11.17;;;;;;;2.00;100.00;99906.53;31467039;28;20070;-82
2023/01/29 13:18:46;;;;;;;27.63;11.00;;;;;;;1.90;100.00;99915.97;31470536;28;20102;-81
2023/01/29 13:34:14;;;;;;;27.63;12.47;;;;;;;1.79;100.00;99931.13;31409045;28;20056;-81
2023/01/29 13:49:26;;;;;;;24.23;12.10;;;;;;;1.86;100.00;99951.88;31458725;28;20047;-80
2023/01/29 14:04:29;;;;;;;28.30;12.43;;;;;;;1.78;100.00;99944.88;31453554;28;20049;-83
2023/01/29 18:39:20;;;;;;;27.17;12.83;;;;;;;1.25;100.00;100019.75;32129935;27;20890;-75
2023/01/29 18:54:22;;;;;;;24.57;9.87;;;;;;;1.23;100.00;100046.88;31972289;27;20467;-74
2023/01/29 19:09:24;;;;;;;24.47;11.00;;;;;;;1.30;100.00;100064.94;31974059;27;20118;-74
2023/01/29 19:24:26;;;;;;;22.60;10.23;;;;;;;1.30;100.00;100070.28;31949425;27;20052;-75
2023/01/29 19:39:32;;;;;;;25.30;10.40;;;;;;;1.26;100.00;100062.19;31868571;27;20047;-75
2023/01/29 19:54:35;;;;;;;22.33;10.17;;;;;;;1.22;100.00;100073.97;31883854;27;20142;-77
2023/01/29 20:09:36;;;;;;;21.20;10.67;;;;;;;2.10;100.00;100077.28;31905028;27;20054;-75
2023/01/29 20:24:41;;;;;;;20.30;10.83;;;;;;;1.12;100.00;100087.94;31863904;27;20051;-75
2023/01/29 20:39:43;;;;;;;24.80;10.40;;;;;;;0.94;100.00;100084.94;31835040;27;20091;-76
2023/01/29 20:54:46;;;;;;;22.83;10.17;;;;;;;0.84;100.00;100096.19;31855939;27;20050;-78
2023/01/29 21:09:48;;;;;;;18.67;9.60;;;;;;;0.73;100.00;100089.84;31878996;27;20866;-77
2023/01/29 21:24:50;;;;;;;23.43;10.93;;;;;;;0.79;100.00;100094.56;31824227;27;20077;-73
2023/01/29 21:39:52;;;;;;;20.97;9.60;;;;;;;0.64;100.00;100092.75;31807686;27;20043;-75
2023/01/29 21:54:55;;;;;;;25.60;9.00;;;;;;;0.69;100.00;100084.47;31819781;27;20039;-74
2023/01/29 22:09:57;;;;;;;15.57;7.90;;;;;;;0.80;100.00;100080.06;31820144;27;20055;-74
2023/01/29 22:24:58;;;;;;;14.30;8.23;;;;;;;0.64;100.00;100092.75;31845700;27;20401;-76
2023/01/29 22:40:00;;;;;;;13.40;8.53;;;;;;;0.38;100.00;100095.25;31867593;27;20043;-75
2023/01/29 22:55:08;;;;;;;12.20;8.97;;;;;;;0.36;100.00;100079.56;31860897;28;20066;-73
2023/01/29 23:10:13;;;;;;;15.30;7.43;;;;;;;0.36;100.00;100086.81;31844975;27;20055;-74
2023/01/29 23:25:16;;;;;;;;;;;;;;;0.35;100.00;100112.75;31859660;27;20063;-75
2023/01/29 23:40:18;;;;;;;13.97;7.20;;;;;;;0.34;100.00;100114.63;31860202;27;20380;-75
2023/01/29 23:55:20;;;;;;;14.90;9.33;;;;;;;0.26;100.00;100114.81;31841909;27;20073;-75
